createdAt,value
2019-06-07T00:00:39.157Z,19.37
2019-06-07T00:01:13.850Z,19.47
2019-06-07T00:01:54.406Z,19.31
2019-06-07T00:02:34.997Z,19.39
2019-06-07T00:03:26.492Z,19.37
2019-06-07T00:03:56.121Z,19.36
2019-06-07T00:04:36.683Z,19.45
2019-06-07T00:05:19.609Z,19.34
2019-06-07T00:05:57.809Z,19.41
2019-06-07T00:06:38.371Z,19.37
2019-06-07T00:07:21.693Z,19.39
2019-06-07T00:08:07.303Z,19.4
2019-06-07T00:08:40.098Z,19.3
2019-06-07T00:09:22.427Z,19.4
2019-06-07T00:10:01.253Z,19.4
2019-06-07T00:10:41.820Z,19.3
2019-06-07T00:11:22.389Z,19.39
2019-06-07T00:12:02.943Z,19.37
2019-06-07T00:12:43.509Z,19.36
2019-06-07T00:13:24.075Z,19.37
2019-06-07T00:14:04.814Z,19.36
2019-06-07T00:14:45.380Z,19.34
2019-06-07T00:15:28.885Z,19.3
2019-06-07T00:16:06.516Z,19.16
2019-06-07T00:16:47.083Z,19.31
2019-06-07T00:17:27.658Z,19.22
2019-06-07T00:18:11.016Z,19.19
2019-06-07T00:18:48.775Z,19.22
2019-06-07T00:19:29.356Z,19.21
2019-06-07T00:20:13.709Z,19.15
2019-06-07T00:20:50.508Z,19.21
2019-06-07T00:22:12.617Z,19.12
2019-06-07T00:22:17.917Z,19.21
2019-06-07T00:22:52.212Z,19.21
2019-06-07T00:23:32.779Z,19.18
2019-06-07T00:24:15.889Z,19.16
2019-06-07T00:24:53.914Z,19.22
2019-06-07T00:25:34.509Z,19.19
2019-06-07T00:26:18.019Z,19.19
2019-06-07T00:26:58.653Z,19.18
2019-06-07T00:27:39.150Z,19.18
2019-06-07T00:28:20.092Z,19.18
2019-06-07T00:29:00.261Z,19.27
2019-06-07T00:29:40.828Z,19.29
2019-06-07T00:30:50.450Z,19.18
2019-06-07T00:31:01.954Z,19.21
2019-06-07T00:31:42.542Z,19.21
2019-06-07T00:32:23.088Z,19.14
2019-06-07T00:33:03.707Z,19.22
2019-06-07T00:33:44.265Z,19.18
2019-06-07T00:34:25.137Z,19.18
2019-06-07T00:35:05.508Z,19.26
2019-06-07T00:35:46.069Z,19.22
2019-06-07T00:36:26.676Z,19.12
2019-06-07T00:37:07.244Z,19.18
2019-06-07T00:37:47.813Z,19.14
2019-06-07T00:38:28.396Z,19.14
2019-06-07T00:39:10.542Z,19.16
2019-06-07T00:40:12.626Z,19.16
2019-06-07T00:40:32.157Z,19.14
2019-06-07T00:41:12.392Z,19.12
2019-06-07T00:41:51.340Z,19.19
2019-06-07T00:42:31.852Z,19.08
2019-06-07T00:43:14.076Z,19.09
2019-06-07T00:43:53.025Z,19.12
2019-06-07T00:44:33.611Z,19.02
2019-06-07T00:45:18.333Z,19.09
2019-06-07T00:45:54.741Z,19.07
2019-06-07T00:46:35.309Z,19.07
2019-06-07T00:47:18.727Z,19.02
2019-06-07T00:47:56.449Z,19
2019-06-07T00:48:37.147Z,19.11
2019-06-07T00:49:31.975Z,19.04
2019-06-07T00:49:58.298Z,19
2019-06-07T00:50:38.848Z,19.02
2019-06-07T00:51:21.216Z,18.99
2019-06-07T00:52:00.007Z,19.14
2019-06-07T00:53:13.688Z,19.02
2019-06-07T00:53:29.672Z,19.02
2019-06-07T00:54:01.697Z,19.04
2019-06-07T00:54:42.283Z,19.11
2019-06-07T00:55:27.339Z,18.95
2019-06-07T00:56:03.428Z,18.89
2019-06-07T00:56:43.976Z,18.95
2019-06-07T00:57:24.669Z,18.92
2019-06-07T00:58:05.093Z,18.88
2019-06-07T00:58:45.654Z,18.93
2019-06-07T00:59:29.390Z,18.84
2019-06-07T01:00:06.759Z,18.95
2019-06-07T01:00:47.329Z,18.89
2019-06-07T01:04:01.254Z,18.84
2019-06-07T01:04:41.840Z,18.89
2019-06-07T01:05:29.114Z,18.86
2019-06-07T01:06:02.979Z,18.78
2019-06-07T01:06:43.571Z,18.74
2019-06-07T01:07:24.489Z,18.74
2019-06-07T01:08:04.880Z,18.9
2019-06-07T01:08:45.464Z,18.81
2019-06-07T01:09:26.039Z,18.8
2019-06-07T01:10:06.615Z,18.77
2019-06-07T01:10:53.339Z,18.8
2019-06-07T01:11:27.777Z,18.78
2019-06-07T01:12:08.340Z,18.84
2019-06-07T01:12:48.890Z,18.8
2019-06-07T01:13:29.450Z,18.83
2019-06-07T01:14:10.006Z,18.75
2019-06-07T01:14:50.578Z,18.77
2019-06-07T01:15:31.142Z,18.7
2019-06-07T01:16:11.701Z,18.77
2019-06-07T01:16:57.734Z,18.74
2019-06-07T01:17:42.072Z,18.68
2019-06-07T01:18:34.423Z,18.7
2019-06-07T01:18:53.952Z,18.7
2019-06-07T01:19:34.832Z,18.7
2019-06-07T01:20:16.615Z,18.66
2019-06-07T01:20:55.954Z,18.66
2019-06-07T01:21:36.521Z,18.7
2019-06-07T01:22:18.269Z,18.68
2019-06-07T01:22:57.642Z,18.6
2019-06-07T01:24:11.260Z,18.7
2019-06-07T01:24:20.015Z,18.65
2019-06-07T01:24:59.319Z,18.65
2019-06-07T01:25:39.888Z,18.63
2019-06-07T01:26:22.328Z,18.68
2019-06-07T01:27:01.024Z,18.7
2019-06-07T01:27:41.603Z,18.73
2019-06-07T01:28:24.747Z,18.8
2019-06-07T01:29:02.745Z,18.74
2019-06-07T01:29:43.328Z,18.81
2019-06-07T01:30:26.470Z,18.81
2019-06-07T01:31:04.464Z,18.74
2019-06-07T01:31:45.043Z,18.83
2019-06-07T01:32:27.156Z,18.75
2019-06-07T01:33:06.158Z,18.86
2019-06-07T01:33:50.609Z,18.81
2019-06-07T01:34:28.651Z,18.78
2019-06-07T01:35:07.838Z,18.75
2019-06-07T01:35:48.431Z,18.74
2019-06-07T01:36:30.888Z,18.75
2019-06-07T01:37:09.597Z,18.74
2019-06-07T01:37:50.179Z,18.68
2019-06-07T01:38:31.484Z,18.7
2019-06-07T01:39:12.029Z,18.7
2019-06-07T01:39:52.600Z,18.63
2019-06-07T01:40:33.183Z,18.66
2019-06-07T01:41:13.733Z,18.66
2019-06-07T01:41:54.305Z,18.6
2019-06-07T01:42:34.857Z,18.68
2019-06-07T01:43:16.948Z,18.68
2019-06-07T01:43:56.049Z,18.66
2019-06-07T01:44:36.622Z,18.74
2019-06-07T01:45:18.027Z,18.68
2019-06-07T01:45:57.790Z,18.7
2019-06-07T01:46:38.353Z,18.66
2019-06-07T01:47:21.085Z,18.65
2019-06-07T01:47:59.492Z,18.66
2019-06-07T01:48:49.264Z,18.68
2019-06-07T01:49:22.149Z,18.7
2019-06-07T01:50:01.298Z,18.65
2019-06-07T01:50:41.869Z,18.65
2019-06-07T01:51:24.244Z,18.65
2019-06-07T01:52:03.183Z,18.62
2019-06-07T01:52:43.720Z,18.73
2019-06-07T01:53:26.299Z,18.66
2019-06-07T01:54:58.283Z,18.71
2019-06-07T01:55:28.825Z,18.62
2019-06-07T01:56:06.511Z,18.7
2019-06-07T01:56:47.077Z,18.66
2019-06-07T01:57:43.400Z,18.65
2019-06-07T01:58:08.213Z,18.66
2019-06-07T01:58:48.788Z,18.59
2019-06-07T01:59:31.359Z,18.63
2019-06-07T02:00:09.998Z,18.63
2019-06-07T02:00:50.490Z,18.66
2019-06-07T02:01:35.060Z,18.65
2019-06-07T02:02:11.652Z,18.63
2019-06-07T02:02:52.208Z,18.53
2019-06-07T02:03:33.526Z,18.63
2019-06-07T02:04:13.328Z,18.6
2019-06-07T02:04:53.904Z,18.65
2019-06-07T02:05:34.471Z,18.59
2019-06-07T02:06:15.041Z,18.55
2019-06-07T02:06:55.604Z,18.6
2019-06-07T02:07:36.169Z,18.5
2019-06-07T02:08:16.775Z,18.55
2019-06-07T02:08:57.336Z,18.56
2019-06-07T02:09:37.928Z,18.63
2019-06-07T02:10:19.639Z,18.5
2019-06-07T02:10:59.067Z,18.58
2019-06-07T02:11:39.655Z,18.58
2019-06-07T02:12:27.821Z,18.55
2019-06-07T02:13:00.784Z,18.5
2019-06-07T02:13:41.348Z,18.56
2019-06-07T02:14:22.923Z,18.56
2019-06-07T02:15:03.276Z,18.52
2019-06-07T02:15:43.054Z,18.55
2019-06-07T02:16:25.290Z,18.5
2019-06-07T02:17:04.184Z,18.47
2019-06-07T02:17:44.759Z,18.47
2019-06-07T02:18:27.744Z,18.47
2019-06-07T02:19:05.891Z,18.49
2019-06-07T02:19:46.510Z,18.44
2019-06-07T02:20:31.783Z,18.41
2019-06-07T02:21:07.666Z,18.45
2019-06-07T02:21:48.239Z,18.43
2019-06-07T02:22:30.945Z,18.41
2019-06-07T02:23:09.377Z,18.44
2019-06-07T02:23:49.949Z,18.41
2019-06-07T02:24:34.530Z,18.43
2019-06-07T02:27:32.230Z,18.38
2019-06-07T02:28:27.041Z,18.47
2019-06-07T02:28:51.020Z,18.44
2019-06-07T02:29:33.523Z,18.49
2019-06-07T02:30:59.758Z,18.43
2019-06-07T02:31:38.982Z,18.41
2019-06-07T02:32:13.789Z,18.43
2019-06-07T02:32:54.351Z,18.45
2019-06-07T02:33:39.920Z,18.43
2019-06-07T02:34:15.470Z,18.35
2019-06-07T02:34:56.042Z,18.4
2019-06-07T02:35:40.063Z,18.41
2019-06-07T02:36:17.148Z,18.44
2019-06-07T02:36:57.719Z,18.41
2019-06-07T02:37:38.290Z,18.38
2019-06-07T02:38:18.851Z,18.44
2019-06-07T02:38:59.401Z,18.44
2019-06-07T02:39:40.943Z,18.47
2019-06-07T02:40:21.948Z,18.45
2019-06-07T02:41:01.092Z,18.38
2019-06-07T02:41:41.652Z,18.44
2019-06-07T02:42:25.999Z,18.43
2019-06-07T02:43:02.829Z,18.33
2019-06-07T02:43:43.391Z,18.35
2019-06-07T02:44:27.713Z,18.35
2019-06-07T02:45:04.509Z,18.38
2019-06-07T02:45:45.106Z,18.34
2019-06-07T02:46:34.598Z,18.37
2019-06-07T02:47:06.314Z,18.4
2019-06-07T02:47:46.919Z,18.44
2019-06-07T02:48:31.777Z,18.38
2019-06-07T02:49:08.013Z,18.45
2019-06-07T02:49:48.590Z,18.44
2019-06-07T02:50:32.318Z,18.43
2019-06-07T02:51:09.716Z,18.49
2019-06-07T02:51:50.310Z,18.44
2019-06-07T02:52:34.205Z,18.35
2019-06-07T02:53:11.979Z,18.44
2019-06-07T02:53:52.535Z,18.37
2019-06-07T02:54:36.768Z,18.37
2019-06-07T02:55:13.673Z,18.29
2019-06-07T02:56:43.844Z,18.28
2019-06-07T02:57:15.358Z,18.31
2019-06-07T02:57:55.914Z,18.29
2019-06-07T02:58:41.354Z,18.31
2019-06-07T02:59:17.044Z,18.29
2019-06-07T03:00:07.483Z,18.35
2019-06-07T03:00:59.826Z,18.33
2019-06-07T03:01:18.736Z,18.33
2019-06-07T03:01:59.302Z,18.34
2019-06-07T03:02:41.283Z,18.35
2019-06-07T03:03:22.211Z,18.34
2019-06-07T03:04:00.977Z,18.35
2019-06-07T03:04:44.461Z,18.34
2019-06-07T03:05:22.152Z,18.38
2019-06-07T03:06:02.720Z,18.34
2019-06-07T03:06:44.066Z,18.34
2019-06-07T03:07:23.853Z,18.29
2019-06-07T03:08:04.471Z,18.33
2019-06-07T03:08:45.060Z,18.35
2019-06-07T03:09:26.288Z,18.31
2019-06-07T03:10:06.177Z,18.23
2019-06-07T03:10:46.739Z,18.28
2019-06-07T03:11:28.209Z,18.23
2019-06-07T03:12:07.860Z,18.28
2019-06-07T03:12:48.440Z,18.31
2019-06-07T03:13:30.482Z,18.26
2019-06-07T03:14:09.848Z,18.34
2019-06-07T03:14:50.414Z,18.29
2019-06-07T03:15:39.092Z,18.26
2019-06-07T03:16:11.543Z,18.25
2019-06-07T03:16:52.103Z,18.29
2019-06-07T03:17:36.410Z,18.2
2019-06-07T03:18:13.233Z,18.29
2019-06-07T03:18:53.789Z,18.2
2019-06-07T03:19:37.372Z,18.31
2019-06-07T03:20:14.917Z,18.26
2019-06-07T03:21:04.885Z,18.23
2019-06-07T03:21:36.401Z,18.31
2019-06-07T03:22:16.633Z,18.41
2019-06-07T03:22:57.189Z,18.31
2019-06-07T03:23:39.084Z,18.43
2019-06-07T03:24:18.324Z,18.4
2019-06-07T03:24:58.888Z,18.45
2019-06-07T03:25:39.441Z,18.49
2019-06-07T03:26:20.018Z,18.59
2019-06-07T03:27:49.005Z,18.63
2019-06-07T03:28:21.696Z,18.73
2019-06-07T03:29:02.261Z,18.73
2019-06-07T03:29:42.866Z,18.83
2019-06-07T03:30:36.750Z,18.95
2019-06-07T03:31:04.051Z,18.9
2019-06-07T03:31:47.292Z,19.02
2019-06-07T03:32:25.170Z,19.07
2019-06-07T03:33:05.736Z,19.15
2019-06-07T03:33:46.322Z,19
2019-06-07T03:34:29.604Z,19.09
2019-06-07T03:35:07.432Z,18.99
2019-06-07T03:35:47.994Z,18.96
2019-06-07T03:36:29.685Z,18.9
2019-06-07T03:37:09.153Z,18.9
2019-06-07T03:37:49.726Z,18.89
2019-06-07T03:38:33.122Z,18.88
2019-06-07T03:39:10.853Z,18.84
2019-06-07T03:39:51.412Z,18.89
2019-06-07T03:40:33.949Z,18.73
2019-06-07T03:41:12.531Z,18.81
2019-06-07T03:42:05.559Z,18.77
2019-06-07T03:42:34.692Z,18.74
2019-06-07T03:43:14.221Z,18.73
2019-06-07T03:43:54.796Z,18.81
2019-06-07T03:44:37.895Z,18.75
2019-06-07T03:45:15.950Z,18.65
2019-06-07T03:45:56.516Z,18.77
2019-06-07T03:46:38.822Z,18.71
2019-06-07T03:47:17.636Z,18.66
2019-06-07T03:47:58.192Z,18.6
2019-06-07T03:48:40.715Z,18.62
2019-06-07T03:49:19.315Z,18.66
2019-06-07T03:49:59.871Z,18.59
2019-06-07T03:50:42.213Z,18.49
2019-06-07T03:51:24.958Z,18.63
2019-06-07T03:52:01.579Z,18.52
2019-06-07T03:52:42.150Z,18.47
2019-06-07T03:53:22.717Z,18.47
2019-06-07T03:54:03.297Z,18.47
2019-06-07T03:54:43.873Z,18.44
2019-06-07T03:55:24.446Z,18.47
2019-06-07T03:56:05.147Z,18.44
2019-06-07T03:56:45.626Z,18.43
2019-06-07T03:57:28.612Z,18.49
2019-06-07T03:58:49.997Z,18.41
2019-06-07T03:59:28.370Z,18.49
2019-06-07T04:00:08.433Z,18.5
2019-06-07T04:00:48.987Z,18.38
2019-06-07T04:01:30.286Z,18.44
2019-06-07T04:02:10.112Z,18.44
2019-06-07T04:02:50.695Z,18.44
2019-06-07T04:03:39.994Z,18.45
2019-06-07T04:04:11.816Z,18.49
2019-06-07T04:04:52.366Z,18.44
2019-06-07T04:05:38.523Z,18.44
2019-06-07T04:06:13.522Z,18.43
2019-06-07T04:06:54.191Z,18.4
2019-06-07T04:07:36.794Z,18.44
2019-06-07T04:08:15.262Z,18.47
2019-06-07T04:08:55.865Z,18.44
2019-06-07T04:09:40.026Z,18.43
2019-06-07T04:10:16.995Z,18.44
2019-06-07T04:10:59.988Z,18.38
2019-06-07T04:11:39.336Z,18.44
2019-06-07T04:12:18.715Z,18.47
2019-06-07T04:12:59.280Z,18.47
2019-06-07T04:13:42.611Z,18.47
2019-06-07T04:14:20.702Z,18.47
2019-06-07T04:15:01.264Z,18.52
2019-06-07T04:15:41.828Z,18.44
2019-06-07T04:16:22.416Z,18.44
2019-06-07T04:17:02.980Z,18.44
2019-06-07T04:18:00.697Z,18.43
2019-06-07T04:18:24.102Z,18.4
2019-06-07T04:19:04.674Z,18.38
2019-06-07T04:19:45.237Z,18.43
2019-06-07T04:20:25.798Z,18.47
2019-06-07T04:21:06.366Z,18.4
2019-06-07T04:21:46.959Z,18.47
2019-06-07T04:22:28.827Z,18.49
2019-06-07T04:23:27.146Z,18.41
2019-06-07T04:23:48.658Z,18.45
2019-06-07T04:24:30.945Z,18.47
2019-06-07T04:25:09.785Z,18.45
2019-06-07T04:25:50.358Z,18.45
2019-06-07T04:26:31.501Z,18.47
2019-06-07T04:27:11.477Z,18.45
2019-06-07T04:27:52.039Z,18.5
2019-06-07T04:29:24.715Z,18.49
2019-06-07T04:30:06.291Z,18.4
2019-06-07T04:30:36.762Z,18.45
2019-06-07T04:31:14.884Z,18.4
2019-06-07T04:31:55.440Z,18.45
2019-06-07T04:32:37.180Z,18.34
2019-06-07T04:33:16.586Z,18.44
2019-06-07T04:33:57.152Z,18.41
2019-06-07T04:34:42.171Z,18.47
2019-06-07T04:35:18.485Z,18.41
2019-06-07T04:35:58.856Z,18.43
2019-06-07T04:36:55.053Z,18.43
2019-06-07T04:37:19.993Z,18.37
2019-06-07T04:38:00.565Z,18.4
2019-06-07T04:38:42.577Z,18.41
2019-06-07T04:39:21.727Z,18.4
2019-06-07T04:40:02.269Z,18.45
2019-06-07T04:40:43.144Z,18.47
2019-06-07T04:41:23.398Z,18.45
2019-06-07T04:42:03.957Z,18.44
2019-06-07T04:42:45.681Z,18.41
2019-06-07T04:43:25.226Z,18.4
2019-06-07T04:44:05.651Z,18.38
2019-06-07T04:44:46.206Z,18.47
2019-06-07T04:45:36.061Z,18.56
2019-06-07T04:46:07.328Z,18.5
2019-06-07T04:46:47.903Z,18.52
2019-06-07T04:47:29.643Z,18.47
2019-06-07T04:48:09.083Z,18.5
2019-06-07T04:48:49.647Z,18.52
2019-06-07T04:49:32.638Z,18.47
2019-06-07T04:50:10.774Z,18.49
2019-06-07T04:50:52.365Z,18.47
2019-06-07T04:51:33.868Z,18.45
2019-06-07T04:52:12.490Z,18.44
2019-06-07T04:52:53.088Z,18.43
2019-06-07T04:53:35.152Z,18.45
2019-06-07T04:54:14.225Z,18.47
2019-06-07T04:54:54.789Z,18.49
2019-06-07T04:55:37.269Z,18.56
2019-06-07T04:56:15.916Z,18.6
2019-06-07T04:56:56.486Z,18.7
2019-06-07T04:57:39.483Z,18.75
2019-06-07T04:58:17.622Z,18.96
2019-06-07T04:58:58.192Z,19.04
2019-06-07T05:00:10.409Z,18.95
2019-06-07T05:00:49.532Z,19.09
2019-06-07T05:01:03.320Z,18.98
2019-06-07T05:01:42.555Z,19.11
2019-06-07T05:02:21.015Z,19.14
2019-06-07T05:03:01.577Z,19.22
2019-06-07T05:03:44.200Z,19.3
2019-06-07T05:04:22.787Z,19.39
2019-06-07T05:05:03.301Z,19.4
2019-06-07T05:05:44.048Z,19.48
2019-06-07T05:06:25.519Z,19.44
2019-06-07T05:07:06.099Z,19.48
2019-06-07T05:07:46.678Z,19.66
2019-06-07T05:08:28.592Z,19.58
2019-06-07T05:09:07.834Z,19.59
2019-06-07T05:09:48.389Z,19.62
2019-06-07T05:10:30.608Z,19.66
2019-06-07T05:11:09.573Z,19.64
2019-06-07T05:11:50.152Z,19.59
2019-06-07T05:12:32.518Z,19.63
2019-06-07T05:13:11.297Z,19.56
2019-06-07T05:13:51.957Z,19.48
2019-06-07T05:14:34.537Z,19.52
2019-06-07T05:15:13.381Z,19.37
2019-06-07T05:15:53.999Z,19.34
2019-06-07T05:16:36.561Z,19.27
2019-06-07T05:17:15.111Z,19.36
2019-06-07T05:17:55.678Z,19.3
2019-06-07T05:18:39.794Z,19.31
2019-06-07T05:19:16.814Z,19.31
2019-06-07T05:19:57.412Z,19.22
2019-06-07T05:20:40.775Z,19.16
2019-06-07T05:21:18.567Z,19.16
2019-06-07T05:22:03.977Z,19.14
2019-06-07T05:22:44.304Z,19.02
2019-06-07T05:23:59.796Z,19.16
2019-06-07T05:24:07.297Z,19.16
2019-06-07T05:24:43.676Z,19.15
2019-06-07T05:25:21.967Z,19.21
2019-06-07T05:26:02.516Z,19.31
2019-06-07T05:26:43.121Z,19.34
2019-06-07T05:27:23.661Z,19.33
2019-06-07T05:28:04.229Z,19.33
2019-06-07T05:28:44.860Z,19.47
2019-06-07T05:29:25.420Z,19.49
2019-06-07T05:30:13.487Z,19.56
2019-06-07T05:31:08.400Z,19.63
2019-06-07T05:31:27.168Z,19.66
2019-06-07T05:32:07.730Z,19.66
2019-06-07T05:32:48.294Z,19.85
2019-06-07T05:33:28.862Z,19.96
2019-06-07T05:34:09.431Z,19.96
2019-06-07T05:34:49.996Z,19.99
2019-06-07T05:35:30.686Z,20.18
2019-06-07T05:36:11.162Z,20.13
2019-06-07T05:37:10.335Z,20.16
2019-06-07T05:37:33.806Z,20.37
2019-06-07T05:38:12.851Z,20.34
2019-06-07T05:38:53.419Z,20.39
2019-06-07T05:39:36.784Z,20.51
2019-06-07T05:40:14.612Z,20.44
2019-06-07T05:40:55.188Z,20.58
2019-06-07T05:41:37.018Z,20.6
2019-06-07T05:42:16.351Z,20.7
2019-06-07T05:42:56.926Z,20.77
2019-06-07T05:43:40.894Z,20.87
2019-06-07T05:44:18.051Z,20.95
2019-06-07T05:44:58.627Z,21
2019-06-07T05:45:44.561Z,20.99
2019-06-07T05:46:19.769Z,21.11
2019-06-07T05:47:00.349Z,21.2
2019-06-07T05:47:49.618Z,21.27
2019-06-07T05:48:21.499Z,21.36
2019-06-07T05:49:02.064Z,21.52
2019-06-07T05:49:44.627Z,21.52
2019-06-07T05:50:38.887Z,21.51
2019-06-07T05:51:03.814Z,21.61
2019-06-07T05:51:45.028Z,21.58
2019-06-07T05:52:24.943Z,21.64
2019-06-07T05:53:05.545Z,21.85
2019-06-07T05:53:46.303Z,21.82
2019-06-07T05:54:26.680Z,21.89
2019-06-07T05:55:07.260Z,21.8
2019-06-07T05:55:47.891Z,21.83
2019-06-07T05:56:28.454Z,21.89
2019-06-07T05:57:09.009Z,21.85
2019-06-07T05:57:51.172Z,21.91
2019-06-07T05:58:30.143Z,21.95
2019-06-07T05:59:10.714Z,22
2019-06-07T05:59:51.281Z,22.07
2019-06-07T06:00:34.575Z,22.14
2019-06-07T06:01:41.975Z,22.17
2019-06-07T06:01:59.623Z,22.23
2019-06-07T06:02:52.145Z,22.29
2019-06-07T06:03:14.185Z,22.39
2019-06-07T06:03:54.764Z,22.39
2019-06-07T06:04:35.995Z,22.43
2019-06-07T06:05:32.306Z,22.44
2019-06-07T06:05:56.495Z,22.44
2019-06-07T06:06:39.410Z,22.53
2019-06-07T06:07:17.653Z,22.54
2019-06-07T06:07:58.346Z,22.54
2019-06-07T06:08:39.986Z,22.65
2019-06-07T06:09:19.377Z,22.6
2019-06-07T06:09:59.948Z,22.63
2019-06-07T06:10:45.163Z,22.66
2019-06-07T06:11:21.093Z,22.59
2019-06-07T06:12:02.560Z,22.75
2019-06-07T06:12:45.936Z,22.81
2019-06-07T06:13:22.810Z,22.8
2019-06-07T06:14:07.807Z,22.83
2019-06-07T06:14:44.890Z,22.9
2019-06-07T06:15:41.424Z,23
2019-06-07T06:16:05.164Z,23.02
2019-06-07T06:16:49.295Z,23.17
2019-06-07T06:17:26.317Z,23.13
2019-06-07T06:18:06.891Z,23.15
2019-06-07T06:18:49.141Z,23.2
2019-06-07T06:19:28.044Z,23.24
2019-06-07T06:20:08.640Z,23.31
2019-06-07T06:21:09.320Z,23.34
2019-06-07T06:23:51.522Z,23.55
2019-06-07T06:24:28.697Z,23.54
2019-06-07T06:25:56.450Z,23.68
2019-06-07T06:26:30.424Z,23.63
2019-06-07T06:27:28.383Z,23.76
2019-06-07T06:28:11.910Z,23.77
2019-06-07T06:28:32.173Z,23.77
2019-06-07T06:29:12.732Z,23.74
2019-06-07T06:29:53.312Z,23.8
2019-06-07T06:30:33.927Z,23.86
2019-06-07T06:31:14.509Z,23.86
2019-06-07T06:32:39.381Z,23.92
2019-06-07T06:32:52.565Z,23.92
2019-06-07T06:33:31.101Z,24.11
2019-06-07T06:33:56.881Z,24.05
2019-06-07T06:34:39.955Z,24.1
2019-06-07T06:35:18.043Z,24.18
2019-06-07T06:35:58.614Z,24.16
2019-06-07T06:36:39.859Z,24.23
2019-06-07T06:37:19.780Z,24.18
2019-06-07T06:38:00.399Z,24.21
2019-06-07T06:38:41.356Z,24.28
2019-06-07T06:39:21.501Z,24.32
2019-06-07T06:40:02.069Z,24.26
2019-06-07T06:40:46.175Z,24.18
2019-06-07T06:41:23.243Z,24.17
2019-06-07T06:42:04.018Z,24.2
2019-06-07T06:42:48.127Z,24.17
2019-06-07T06:43:24.951Z,24.11
2019-06-07T06:44:05.518Z,24.18
2019-06-07T06:44:47.026Z,24.21
2019-06-07T06:45:26.679Z,24.21
2019-06-07T06:46:07.259Z,24.23
2019-06-07T06:46:56.821Z,24.21
2019-06-07T06:47:28.391Z,24.3
2019-06-07T06:48:08.963Z,24.35
2019-06-07T06:48:54.670Z,24.51
2019-06-07T06:49:30.124Z,24.51
2019-06-07T06:50:10.732Z,24.54
2019-06-07T06:50:52.611Z,24.55
2019-06-07T06:51:31.878Z,24.61
2019-06-07T06:52:12.449Z,24.69
2019-06-07T06:52:54.545Z,24.81
2019-06-07T06:53:34.445Z,24.88
2019-06-07T06:54:15.408Z,24.86
2019-06-07T06:55:00.686Z,24.92
2019-06-07T06:55:36.618Z,25.01
2019-06-07T06:56:17.194Z,25.04
2019-06-07T06:57:17.530Z,25.1
2019-06-07T06:57:40.558Z,25.11
2019-06-07T06:58:18.907Z,25.18
2019-06-07T06:59:33.894Z,25.25
2019-06-07T06:59:41.676Z,25.23
2019-06-07T07:00:20.622Z,25.36
2019-06-07T07:01:06.271Z,25.35
2019-06-07T07:01:42.503Z,25.35
2019-06-07T07:02:22.351Z,25.41
2019-06-07T07:03:42.218Z,25.43
2019-06-07T07:03:59.922Z,25.38
2019-06-07T07:04:24.064Z,25.46
2019-06-07T07:05:04.656Z,25.48
2019-06-07T07:05:47.075Z,25.51
2019-06-07T07:06:26.955Z,25.51
2019-06-07T07:07:06.354Z,25.51
2019-06-07T07:07:48.857Z,25.54
2019-06-07T07:08:27.573Z,25.5
2019-06-07T07:09:08.138Z,25.5
2019-06-07T07:09:52.215Z,25.62
2019-06-07T07:10:29.339Z,25.54
2019-06-07T07:11:09.900Z,25.59
2019-06-07T07:12:00.555Z,25.65
2019-06-07T07:12:31.020Z,25.6
2019-06-07T07:13:11.592Z,25.66
2019-06-07T07:13:55.822Z,25.73
2019-06-07T07:14:33.026Z,25.73
2019-06-07T07:15:13.592Z,25.78
2019-06-07T07:15:57.755Z,25.73
2019-06-07T07:16:34.755Z,25.81
2019-06-07T07:17:15.330Z,25.83
2019-06-07T07:18:07.503Z,25.84
2019-06-07T07:18:36.475Z,25.88
2019-06-07T07:19:17.051Z,25.91
2019-06-07T07:19:57.607Z,25.95
2019-06-07T07:20:38.178Z,25.9
2019-06-07T07:21:18.744Z,25.99
2019-06-07T07:21:59.318Z,26.03
2019-06-07T07:22:39.886Z,25.96
2019-06-07T07:23:20.479Z,26.13
2019-06-07T07:24:20.033Z,26.13
2019-06-07T07:24:41.876Z,26.21
2019-06-07T07:25:22.159Z,26.26
2019-06-07T07:26:02.742Z,26.1
2019-06-07T07:26:46.204Z,26.23
2019-06-07T07:27:23.896Z,26.1
2019-06-07T07:28:04.466Z,26.07
2019-06-07T07:28:46.444Z,26.06
2019-06-07T07:29:25.654Z,26.07
2019-06-07T07:30:35.222Z,26.21
2019-06-07T07:30:47.264Z,26.18
2019-06-07T07:31:27.385Z,26.13
2019-06-07T07:32:07.971Z,26.18
2019-06-07T07:32:50.678Z,26.21
2019-06-07T07:34:12.746Z,26.26
2019-06-07T07:34:31.701Z,26.28
2019-06-07T07:34:54.389Z,26.26
2019-06-07T07:35:30.913Z,26.33
2019-06-07T07:36:28.423Z,26.4
2019-06-07T07:36:58.168Z,26.4
2019-06-07T07:37:32.641Z,26.26
2019-06-07T07:38:13.195Z,26.34
2019-06-07T07:39:00.208Z,26.28
2019-06-07T07:39:34.348Z,26.28
2019-06-07T07:40:56.024Z,26.26
2019-06-07T07:41:02.746Z,26.28
2019-06-07T07:41:36.070Z,26.25
2019-06-07T07:42:21.051Z,26.22
2019-06-07T07:42:57.209Z,26.29
2019-06-07T07:43:37.783Z,26.29
2019-06-07T07:44:18.350Z,26.26
2019-06-07T07:44:58.920Z,26.26
2019-06-07T07:45:39.513Z,26.22
2019-06-07T07:46:28.927Z,26.22
2019-06-07T07:47:00.661Z,26.25
2019-06-07T07:47:58.128Z,26.25
2019-06-07T07:48:21.800Z,26.31
2019-06-07T07:49:02.391Z,26.26
2019-06-07T07:49:44.713Z,26.28
2019-06-07T07:50:23.524Z,26.29
2019-06-07T07:51:04.091Z,26.38
2019-06-07T07:51:46.309Z,26.34
2019-06-07T07:52:25.227Z,26.51
2019-06-07T07:53:05.822Z,26.51
2019-06-07T07:53:53.053Z,26.48
2019-06-07T07:54:26.997Z,26.47
2019-06-07T07:55:07.582Z,26.56
2019-06-07T07:55:50.294Z,26.52
2019-06-07T07:56:28.711Z,26.51
2019-06-07T07:57:09.302Z,26.52
2019-06-07T07:57:56.723Z,26.43
2019-06-07T07:58:30.474Z,26.4
2019-06-07T07:59:11.051Z,26.38
2019-06-07T08:00:05.791Z,26.22
2019-06-07T08:01:12.768Z,26.16
2019-06-07T08:01:55.934Z,26.1
2019-06-07T08:02:33.932Z,26.15
2019-06-07T08:03:14.530Z,26.15
2019-06-07T08:03:56.515Z,26.13
2019-06-07T08:05:12.641Z,26.16
2019-06-07T08:05:25.451Z,26.19
2019-06-07T08:05:58.844Z,26.21
2019-06-07T08:06:37.427Z,26.18
2019-06-07T08:07:18.002Z,26.07
2019-06-07T08:08:01.339Z,26.07
2019-06-07T08:08:40.222Z,26.07
2019-06-07T08:09:21.268Z,26.21
2019-06-07T08:12:55.109Z,26.07
2019-06-07T08:13:25.325Z,26.21
2019-06-07T08:13:58.560Z,26.06
2019-06-07T08:14:37.777Z,26.28
2019-06-07T08:15:19.165Z,26.15
2019-06-07T08:16:08.144Z,26.18
2019-06-07T08:16:41.334Z,26.31
2019-06-07T08:17:22.369Z,26.25
2019-06-07T08:18:04.566Z,26.26
2019-06-07T08:18:44.613Z,26.29
2019-06-07T08:19:26.110Z,26.31
2019-06-07T08:20:07.013Z,26.31
2019-06-07T08:21:08.485Z,26.25
2019-06-07T08:21:28.674Z,26.26
2019-06-07T08:22:09.236Z,26.21
2019-06-07T08:22:50.002Z,26.18
2019-06-07T08:23:30.365Z,26.23
2019-06-07T08:24:10.930Z,26.19
2019-06-07T08:24:53.221Z,26.16
2019-06-07T08:25:32.071Z,26.13
2019-06-07T08:26:12.634Z,26.15
2019-06-07T08:27:17.157Z,26.1
2019-06-07T08:27:33.754Z,26.06
2019-06-07T08:28:14.321Z,26.13
2019-06-07T08:28:58.539Z,26.18
2019-06-07T08:29:44.684Z,26.13
2019-06-07T08:30:46.924Z,26.15
2019-06-07T08:31:04.013Z,26.1
2019-06-07T08:31:37.148Z,26.18
2019-06-07T08:32:17.732Z,26.1
2019-06-07T08:33:11.885Z,26.16
2019-06-07T08:33:38.872Z,26.31
2019-06-07T08:34:19.453Z,26.29
2019-06-07T08:35:05.769Z,26.34
2019-06-07T08:36:04.149Z,26.29
2019-06-07T08:36:38.527Z,26.26
2019-06-07T08:37:02.142Z,26.37
2019-06-07T08:38:14.570Z,26.41
2019-06-07T08:38:27.252Z,26.36
2019-06-07T08:39:07.451Z,26.36
2019-06-07T08:39:44.041Z,26.41
2019-06-07T08:40:24.770Z,26.4
2019-06-07T08:41:11.659Z,26.31
2019-06-07T08:41:56.233Z,26.25
2019-06-07T08:42:36.786Z,26.29
2019-06-07T08:43:19.415Z,26.23
2019-06-07T08:43:47.592Z,26.13
2019-06-07T08:44:28.152Z,26.16
2019-06-07T08:45:08.727Z,26.07
2019-06-07T08:45:51.126Z,26.1
2019-06-07T08:46:29.873Z,26.1
2019-06-07T08:47:19.669Z,26.21
2019-06-07T08:47:57.129Z,26.13
2019-06-07T08:48:31.601Z,26.13
2019-06-07T08:49:12.182Z,26.26
2019-06-07T08:49:56.275Z,26.29
2019-06-07T08:50:33.318Z,26.25
2019-06-07T08:51:13.902Z,26.28
2019-06-07T08:52:02.942Z,26.28
2019-06-07T08:52:35.057Z,26.29
2019-06-07T08:53:15.611Z,26.23
2019-06-07T08:54:10.828Z,26.26
2019-06-07T08:54:36.756Z,26.22
2019-06-07T08:55:17.337Z,26.25
2019-06-07T08:56:00.673Z,26.26
2019-06-07T08:56:38.445Z,26.26
2019-06-07T08:57:21.526Z,26.23
2019-06-07T08:58:03.986Z,26.13
2019-06-07T08:58:40.227Z,26.15
2019-06-07T08:59:20.764Z,26.1
2019-06-07T09:00:07.017Z,26.21
2019-06-07T09:00:45.884Z,26.16